Terminal Aerodrome Forecast
Issued by NWS

Home | Current Version | Previous Version | Text Only | Print | Product List | Glossary On
Versions: 1 2 3 4 5 6 7 8 9 10 11 12 13 14 15 16 17 18 19
000
FTUS43 KTOP 230800 AAA
TAFFOE
TAF AMD
KFOE 230841Z 2309/2406 15010KT P6SM VCSH BKN100
     FM231500 16014G21KT P6SM VCSH BKN100
     FM231800 16021G31KT P6SM SCT120=

USA.gov is the U.S. government's official web portal to all federal, state and local government web resources and services.